SCBA/BBA METAR and TAF weather

Enter ICAO airport designator
Station Type Date Time Source
SCBA METAR 2024/04/15 09:00 UTC NOAA

SCBA 150900Z AUTO VRB02KT 9999 NCD M04/M04 Q1011


Station Type Date Time Source
SCBA Decoded METAR 2024/04/15 09:00 UTC NOAA

Balmaceda, Chile (SCBA) 45-55S 071-41W 520M
Apr 15, 2024 - 05:00 AM EDT / 2024.04.15 0900 UTC
Wind: Variable at 2 MPH (2 KT):0
Visibility: greater than 7 mile(s):0
Temperature: 24 F (-4 C)
Dew Point: 24 F (-4 C)
Relative Humidity: 100%
Pressure (altimeter): 29.85 in. Hg (1011 hPa)
ob: SCBA 150900Z AUTO VRB02KT 9999 NCD M04/M04 Q1011
cycle: 9

Station Type Date Time Source
SCBA TAF 2024/04/15 06:33 UTC NOAA